Time;durP1;ratioP1;P1;durP2;ratioP2;P2;SDS_P1;SDS_P2;PMS_P1;PMS_P2;Temp;Humidity;BMP_temperature;BMP_pressure;BME280_temperature;BME280_humidity;BME280_pressure;Samples;Min_cycle;Max_cycle;Signal;HPM_P1;HPM_P2
2023/07/01 00:00:53;;;;;;;8.20;2.73;;;20.90;99.90;;;;;;7303526;19;20227;-77
2023/07/01 00:03:19;;;;;;;6.07;1.97;;;20.90;99.90;;;;;;7282658;19;20619;-77
2023/07/01 00:05:44;;;;;;;7.73;2.53;;;20.80;99.90;;;;;;7282647;19;20258;-77
2023/07/01 00:08:10;;;;;;;5.40;2.10;;;20.70;99.90;;;;;;7282253;19;20951;-77
2023/07/01 00:10:36;;;;;;;11.27;3.00;;;20.70;99.90;;;;;;7282491;19;20206;-77
2023/07/01 00:13:02;;;;;;;6.70;2.57;;;20.60;99.90;;;;;;7281654;19;20191;-76
2023/07/01 00:15:27;;;;;;;9.17;2.40;;;20.60;99.90;;;;;;7281567;19;20262;-76
2023/07/01 00:17:55;;;;;;;6.87;2.30;;;20.60;99.90;;;;;;7303279;19;20180;-77
2023/07/01 00:20:21;;;;;;;9.00;2.70;;;20.50;99.90;;;;;;7281768;19;20203;-76
2023/07/01 00:22:47;;;;;;;9.63;2.50;;;20.40;99.90;;;;;;7280304;19;20184;-77
2023/07/01 00:25:13;;;;;;;10.40;2.60;;;20.50;99.90;;;;;;7279683;19;20203;-77
2023/07/01 00:27:39;;;;;;;7.87;2.53;;;20.50;99.90;;;;;;7280766;19;20690;-77
2023/07/01 00:30:05;;;;;;;8.63;2.43;;;20.40;99.90;;;;;;7280792;19;20190;-77
2023/07/01 00:32:31;;;;;;;7.67;2.20;;;20.40;99.90;;;;;;7280171;19;20191;-77
2023/07/01 00:34:57;;;;;;;6.57;2.60;;;20.30;99.90;;;;;;7281898;19;20196;-77
2023/07/01 00:37:22;;;;;;;7.80;2.70;;;20.20;99.90;;;;;;7302814;19;20210;-77
2023/07/01 00:39:49;;;;;;;7.50;2.40;;;20.20;99.90;;;;;;7278730;19;20194;-76
2023/07/01 00:42:15;;;;;;;4.70;1.90;;;20.10;99.90;;;;;;7282193;19;20195;-77
2023/07/01 00:44:41;;;;;;;4.97;2.33;;;20.10;99.90;;;;;;7281799;19;20215;-77
2023/07/01 00:47:07;;;;;;;6.27;2.17;;;20.00;99.90;;;;;;7280907;19;20203;-76
2023/07/01 00:49:33;;;;;;;8.93;2.20;;;20.00;99.90;;;;;;7281330;19;20528;-76
2023/07/01 00:51:59;;;;;;;5.50;2.00;;;19.90;99.90;;;;;;7280520;19;20199;-76
2023/07/01 00:54:26;;;;;;;5.63;1.93;;;19.90;99.90;;;;;;7279981;19;20698;-76
2023/07/01 00:56:52;;;;;;;6.20;2.43;;;19.90;99.90;;;;;;7303259;19;20178;-77
2023/07/01 00:59:17;;;;;;;6.30;2.27;;;19.90;99.90;;;;;;7281375;19;20215;-76
2023/07/01 01:01:48;;;;;;;5.27;1.93;;;19.90;99.90;;;;;;7281187;19;21862;-76
2023/07/01 01:04:33;;;;;;;3.87;1.70;;;19.90;99.90;;;;;;7281730;19;20180;-76
2023/07/01 01:07:05;;;;;;;6.67;2.60;;;19.70;99.90;;;;;;7179599;19;2004540;-77
2023/07/01 01:10:01;;;;;;;6.67;2.20;;;19.40;99.90;;;;;;7280012;19;20219;-77
2023/07/01 01:12:29;;;;;;;5.63;2.13;;;19.20;99.90;;;;;;7258894;19;20188;-77
2023/07/01 01:14:56;;;;;;;8.40;2.70;;;19.10;99.90;;;;;;7284215;19;20186;-77
2023/07/01 01:17:24;;;;;;;6.50;2.30;;;18.90;99.90;;;;;;7301904;19;20181;-78
2023/07/01 01:20:12;;;;;;;5.50;2.30;;;18.80;99.90;;;;;;7280843;19;20203;-78
2023/07/01 01:23:01;;;;;;;5.27;2.13;;;18.70;99.90;;;;;;7178851;19;2005101;-77
2023/07/01 01:25:39;;;;;;;7.50;2.30;;;18.80;99.90;;;;;;7258597;19;20180;-77
2023/07/01 01:28:06;;;;;;;6.43;2.40;;;18.70;99.90;;;;;;7281399;19;20192;-77
2023/07/01 01:30:32;;;;;;;5.37;2.40;;;18.70;99.90;;;;;;7278489;19;20193;-77
2023/07/01 01:32:59;;;;;;;5.97;2.50;;;18.80;99.90;;;;;;7280637;19;20196;-76
2023/07/01 01:35:25;;;;;;;9.50;2.67;;;18.80;99.90;;;;;;7287920;19;20237;-77
2023/07/01 01:37:50;;;;;;;8.23;2.33;;;18.90;99.90;;;;;;7302276;19;20253;-77
2023/07/01 01:40:29;;;;;;;6.33;2.50;;;18.90;99.90;;;;;;7278979;19;20180;-77
2023/07/01 01:43:04;;;;;;;7.27;2.13;;;18.80;99.90;;;;;;7270040;19;20176;-77
2023/07/01 01:45:30;;;;;;;8.03;2.57;;;18.60;99.90;;;;;;7279531;19;20710;-77
2023/07/01 01:47:56;;;;;;;6.07;2.40;;;18.70;99.90;;;;;;7278565;19;20218;-77
2023/07/01 01:50:23;;;;;;;6.40;2.10;;;18.60;99.90;;;;;;7301208;19;20271;-77
2023/07/01 01:52:51;;;;;;;6.97;2.23;;;18.60;99.90;;;;;;7279202;19;20193;-77
2023/07/01 01:55:19;;;;;;;7.33;2.30;;;18.60;99.90;;;;;;7279157;19;20244;-77
2023/07/01 01:57:45;;;;;;;6.10;2.37;;;18.60;99.90;;;;;;7279114;19;20221;-77
2023/07/01 02:00:13;;;;;;;5.13;2.37;;;18.50;99.90;;;;;;7279748;19;20197;-77
2023/07/01 02:02:41;;;;;;;7.43;2.73;;;18.40;99.90;;;;;;7279279;19;20703;-77
2023/07/01 02:05:07;;;;;;;7.50;2.40;;;18.40;99.90;;;;;;7279986;19;20248;-77
2023/07/01 02:07:33;;;;;;;6.07;2.50;;;18.20;99.90;;;;;;7280034;19;20185;-77
2023/07/01 02:09:58;;;;;;;6.67;2.73;;;18.00;99.90;;;;;;7279270;19;20206;-77
2023/07/01 02:12:26;;;;;;;7.80;2.93;;;18.00;99.90;;;;;;7296864;19;20703;-77
2023/07/01 02:14:52;;;;;;;7.80;2.80;;;18.00;99.90;;;;;;7302596;19;20214;-77
2023/07/01 02:17:17;;;;;;;10.30;3.43;;;17.80;99.90;;;;;;7278955;19;20185;-77
2023/07/01 02:19:43;;;;;;;7.27;3.07;;;17.70;99.90;;;;;;7280381;19;20182;-77
2023/07/01 02:22:09;;;;;;;8.50;3.10;;;17.70;99.90;;;;;;7278761;19;20256;-78
2023/07/01 02:24:34;;;;;;;9.37;3.20;;;17.70;99.90;;;;;;7280083;19;20189;-79
2023/07/01 02:27:01;;;;;;;9.70;3.30;;;17.60;99.90;;;;;;7279035;19;20181;-75
2023/07/01 02:29:26;;;;;;;10.57;3.60;;;17.50;99.90;;;;;;7279209;19;20189;-77
2023/07/01 02:31:54;;;;;;;8.17;3.40;;;17.40;99.90;;;;;;7296048;19;20183;-76
2023/07/01 02:34:30;;;;;;;7.10;3.17;;;17.40;99.90;;;;;;7299328;19;20631;-77
2023/07/01 02:36:56;;;;;;;8.37;3.77;;;17.40;99.90;;;;;;7263410;19;20188;-77
2023/07/01 02:39:23;;;;;;;10.63;3.40;;;17.40;99.90;;;;;;7307578;19;20214;-76
2023/07/01 02:41:49;;;;;;;8.97;3.33;;;17.40;99.90;;;;;;7284961;19;20187;-77
2023/07/01 02:44:14;;;;;;;6.97;3.50;;;17.30;99.90;;;;;;7284140;19;20237;-77
2023/07/01 02:46:40;;;;;;;6.20;3.30;;;17.40;99.90;;;;;;7283608;19;20204;-77
2023/07/01 02:49:06;;;;;;;9.03;3.40;;;17.30;99.90;;;;;;7283221;19;20192;-76
2023/07/01 02:51:32;;;;;;;5.47;3.03;;;17.20;99.90;;;;;;7282701;19;20204;-77
2023/07/01 02:53:58;;;;;;;7.73;3.50;;;17.10;99.90;;;;;;7282979;19;20198;-77
2023/07/01 02:56:23;;;;;;;8.10;2.90;;;17.20;99.90;;;;;;7303937;19;20240;-77
2023/07/01 02:58:49;;;;;;;6.67;2.90;;;17.20;99.90;;;;;;7285094;19;20193;-77
2023/07/01 03:01:15;;;;;;;7.73;2.87;;;17.20;99.90;;;;;;7284080;19;20293;-77
2023/07/01 03:03:41;;;;;;;7.23;3.27;;;17.20;99.90;;;;;;7284632;19;20205;-77
2023/07/01 03:06:09;;;;;;;6.87;3.07;;;17.20;99.90;;;;;;7283842;19;20645;-76
2023/07/01 03:08:35;;;;;;;7.57;3.33;;;17.30;99.90;;;;;;7284705;19;20196;-77
2023/07/01 03:11:04;;;;;;;9.20;3.20;;;17.30;99.90;;;;;;7284089;19;20192;-76
2023/07/01 03:13:30;;;;;;;7.03;2.90;;;17.30;99.90;;;;;;7284929;19;20192;-76
2023/07/01 03:15:56;;;;;;;7.03;3.00;;;17.10;99.90;;;;;;7284589;19;20192;-77
2023/07/01 03:18:22;;;;;;;7.13;3.00;;;17.10;99.90;;;;;;7306724;19;20216;-77
2023/07/01 03:20:51;;;;;;;6.43;2.63;;;17.20;99.90;;;;;;7283920;19;20622;-77
2023/07/01 03:23:17;;;;;;;8.00;3.43;;;17.10;99.90;;;;;;7283271;19;20236;-77
2023/07/01 03:25:43;;;;;;;7.67;3.00;;;17.20;99.90;;;;;;7282952;19;20193;-77
2023/07/01 03:28:09;;;;;;;7.13;3.33;;;17.20;99.90;;;;;;7284022;19;20193;-77
2023/07/01 03:30:35;;;;;;;7.37;3.90;;;17.30;99.90;;;;;;7282197;19;20189;-77
2023/07/01 03:33:01;;;;;;;7.63;3.50;;;17.20;99.90;;;;;;7284373;19;20215;-77
2023/07/01 03:35:27;;;;;;;9.20;3.40;;;17.30;99.90;;;;;;7282455;19;20185;-78
2023/07/01 03:37:53;;;;;;;7.13;3.47;;;17.40;99.90;;;;;;7306275;19;20205;-77
2023/07/01 03:40:19;;;;;;;6.27;3.33;;;17.40;99.90;;;;;;7283434;19;20193;-77
2023/07/01 03:42:45;;;;;;;6.73;3.27;;;17.50;99.90;;;;;;7283461;19;20198;-76
2023/07/01 03:45:12;;;;;;;8.73;3.60;;;17.40;99.90;;;;;;7281235;19;20197;-77
2023/07/01 03:47:45;;;;;;;7.93;3.50;;;17.30;99.90;;;;;;7282518;19;20212;-76
2023/07/01 03:50:12;;;;;;;7.03;3.40;;;17.30;99.90;;;;;;7282664;19;20667;-76
2023/07/01 03:52:39;;;;;;;8.60;3.80;;;17.30;99.90;;;;;;7284154;19;20193;-76
2023/07/01 03:55:07;;;;;;;6.70;3.30;;;17.20;99.90;;;;;;7281729;19;20260;-77
2023/07/01 03:57:34;;;;;;;6.20;3.10;;;17.20;99.90;;;;;;7282587;19;20181;-76
2023/07/01 04:00:00;;;;;;;9.77;3.33;;;17.10;99.90;;;;;;7281507;19;20189;-76
2023/07/01 04:02:26;;;;;;;7.23;3.07;;;17.20;99.90;;;;;;7282576;19;20303;-76
2023/07/01 04:04:52;;;;;;;10.97;3.50;;;17.30;99.90;;;;;;7305085;19;20193;-76
2023/07/01 04:07:21;;;;;;;7.87;3.40;;;17.30;99.90;;;;;;7281813;19;20196;-76
2023/07/01 04:09:50;;;;;;;7.73;3.27;;;17.30;99.90;;;;;;7280602;19;20256;-77
2023/07/01 04:12:19;;;;;;;7.77;3.50;;;17.40;99.90;;;;;;7282358;19;20965;-77
2023/07/01 04:14:44;;;;;;;4.67;3.03;;;17.40;99.90;;;;;;7283232;19;20556;-77
2023/07/01 04:17:10;;;;;;;6.17;3.47;;;17.30;99.90;;;;;;7280586;19;20184;-75
2023/07/01 04:19:35;;;;;;;7.00;3.63;;;17.30;99.90;;;;;;7283037;19;20256;-76
2023/07/01 04:22:01;;;;;;;7.23;3.33;;;17.30;99.90;;;;;;7282384;19;20567;-76
2023/07/01 04:24:27;;;;;;;5.77;3.17;;;17.30;99.90;;;;;;7281077;19;20269;-76
2023/07/01 04:26:53;;;;;;;6.43;3.33;;;17.30;99.90;;;;;;7304164;19;20549;-76
2023/07/01 04:29:18;;;;;;;7.57;3.27;;;17.30;99.90;;;;;;7282667;19;20195;-77
2023/07/01 04:31:44;;;;;;;6.77;3.30;;;17.30;99.90;;;;;;7282086;19;20197;-76
2023/07/01 04:34:10;;;;;;;7.57;3.60;;;17.40;99.90;;;;;;7283390;19;20214;-77
2023/07/01 04:36:35;;;;;;;6.20;3.00;;;17.40;99.90;;;;;;7282900;19;20653;-77
2023/07/01 04:39:01;;;;;;;7.30;3.30;;;17.20;99.90;;;;;;7282120;19;20803;-77
2023/07/01 04:41:26;;;;;;;5.87;3.00;;;17.00;99.90;;;;;;7283006;19;20193;-77
2023/07/01 04:43:52;;;;;;;6.13;3.00;;;17.00;99.90;;;;;;7304882;19;20196;-77
2023/07/01 04:46:18;;;;;;;4.67;2.90;;;17.00;99.90;;;;;;7282099;19;20199;-77
2023/07/01 04:48:43;;;;;;;4.37;2.63;;;17.00;99.90;;;;;;7280862;19;20198;-77
2023/07/01 04:51:09;;;;;;;5.23;2.70;;;17.00;99.90;;;;;;7281309;19;20205;-76
2023/07/01 04:53:38;;;;;;;4.27;2.73;;;17.00;99.90;;;;;;7281909;19;20260;-76
2023/07/01 04:56:04;;;;;;;3.63;2.13;;;17.10;99.90;;;;;;7279531;19;20188;-76
2023/07/01 04:58:30;;;;;;;3.37;2.20;;;17.20;99.90;;;;;;7281390;19;20242;-76
2023/07/01 05:00:56;;;;;;;3.43;1.90;;;17.20;99.90;;;;;;7282352;19;20192;-76
2023/07/01 05:03:21;;;;;;;3.03;1.93;;;17.20;99.90;;;;;;7303587;19;20249;-77
2023/07/01 05:05:47;;;;;;;2.80;1.97;;;17.40;99.90;;;;;;7280120;19;20204;-77
2023/07/01 05:08:13;;;;;;;4.93;2.10;;;17.40;99.90;;;;;;7280609;19;20196;-76
2023/07/01 05:10:38;;;;;;;4.00;2.17;;;17.60;99.90;;;;;;7280403;19;20226;-76
2023/07/01 05:13:04;;;;;;;3.67;2.00;;;17.60;99.90;;;;;;7280375;19;20843;-77
2023/07/01 05:15:30;;;;;;;4.40;1.80;;;17.60;99.90;;;;;;7281767;19;20229;-76
2023/07/01 05:17:55;;;;;;;4.03;2.00;;;17.50;99.90;;;;;;7285238;19;20197;-77
2023/07/01 05:20:21;;;;;;;5.77;1.93;;;17.50;99.90;;;;;;7304038;19;20185;-77
2023/07/01 05:22:47;;;;;;;4.87;1.77;;;17.50;99.90;;;;;;7281662;19;20192;-77
2023/07/01 05:25:12;;;;;;;3.00;2.00;;;17.50;99.90;;;;;;7280653;19;20205;-77
2023/07/01 05:27:38;;;;;;;3.60;2.00;;;17.40;99.90;;;;;;7280165;19;20193;-77
2023/07/01 05:30:05;;;;;;;5.77;2.00;;;17.40;99.90;;;;;;7279736;19;20220;-76
2023/07/01 05:32:31;;;;;;;5.40;2.47;;;17.40;99.90;;;;;;7279284;19;20184;-77
2023/07/01 05:34:56;;;;;;;3.13;1.83;;;17.50;99.90;;;;;;7279837;19;20208;-78
2023/07/01 05:37:22;;;;;;;4.57;2.03;;;17.60;99.90;;;;;;7300533;19;20194;-77
2023/07/01 05:39:48;;;;;;;6.07;2.20;;;17.70;99.90;;;;;;7280362;19;20177;-77
2023/07/01 05:42:14;;;;;;;5.43;2.20;;;17.80;99.90;;;;;;7279238;19;20270;-77
2023/07/01 05:44:39;;;;;;;3.70;2.20;;;17.80;99.90;;;;;;7280433;19;20182;-77
2023/07/01 05:47:05;;;;;;;4.63;2.50;;;17.70;99.90;;;;;;7280513;19;20195;-76
2023/07/01 05:49:31;;;;;;;2.93;1.90;;;17.80;99.90;;;;;;7279834;19;20208;-77
2023/07/01 05:51:57;;;;;;;5.03;2.17;;;17.90;99.90;;;;;;7279771;19;20240;-76
2023/07/01 05:54:23;;;;;;;4.47;2.20;;;17.80;99.90;;;;;;7299594;19;20182;-76
2023/07/01 05:56:48;;;;;;;4.33;2.53;;;17.80;99.90;;;;;;7279369;19;20178;-75
2023/07/01 05:59:14;;;;;;;4.70;2.30;;;17.70;99.90;;;;;;7279538;19;20318;-76
2023/07/01 06:01:40;;;;;;;4.33;2.40;;;17.70;99.90;;;;;;7279117;19;20192;-77
2023/07/01 06:04:05;;;;;;;4.63;2.40;;;17.80;99.90;;;;;;7278101;19;20199;-76
2023/07/01 06:06:31;;;;;;;6.67;2.77;;;17.80;99.90;;;;;;7277986;19;20609;-76
2023/07/01 06:08:57;;;;;;;3.83;2.70;;;17.90;99.90;;;;;;7277476;19;20221;-76
2023/07/01 06:11:22;;;;;;;3.97;2.53;;;18.00;99.90;;;;;;7301183;19;20192;-76
2023/07/01 06:13:48;;;;;;;4.77;2.33;;;18.20;99.90;;;;;;7279176;19;20637;-74
2023/07/01 06:16:14;;;;;;;3.43;2.03;;;18.10;99.90;;;;;;7278604;19;20824;-76
2023/07/01 06:18:41;;;;;;;3.67;2.10;;;18.10;99.90;;;;;;7276499;19;20213;-76
2023/07/01 06:21:08;;;;;;;4.17;1.80;;;18.10;99.90;;;;;;7277031;19;20522;-77
2023/07/01 06:23:37;;;;;;;4.13;1.73;;;18.10;99.90;;;;;;7278831;19;20204;-76
2023/07/01 06:26:03;;;;;;;3.50;1.60;;;18.20;99.90;;;;;;7277921;19;20303;-76
2023/07/01 06:28:29;;;;;;;3.23;1.50;;;18.20;99.90;;;;;;7277953;19;20189;-76
2023/07/01 06:30:55;;;;;;;2.37;1.30;;;18.20;99.90;;;;;;7292860;19;20213;-77
2023/07/01 06:33:21;;;;;;;3.73;1.40;;;18.30;99.90;;;;;;7297810;19;20204;-80
2023/07/01 06:35:46;;;;;;;2.20;1.50;;;18.30;99.90;;;;;;7278080;19;20188;-77
2023/07/01 06:38:12;;;;;;;2.10;1.30;;;18.30;99.90;;;;;;7280201;19;20194;-77
2023/07/01 06:40:38;;;;;;;3.00;1.40;;;18.30;99.90;;;;;;7292091;19;20200;-78
2023/07/01 06:43:04;;;;;;;2.60;1.00;;;18.40;99.90;;;;;;7292508;19;20305;-77
2023/07/01 06:45:31;;;;;;;1.43;1.00;;;18.30;99.90;;;;;;7284261;19;20199;-77
2023/07/01 06:47:57;;;;;;;1.77;1.00;;;18.40;99.90;;;;;;7278379;19;20587;-77
2023/07/01 06:50:23;;;;;;;1.37;1.00;;;18.50;99.90;;;;;;7300653;19;20193;-77
2023/07/01 06:52:48;;;;;;;1.70;0.90;;;18.40;99.90;;;;;;7281275;19;20209;-77
2023/07/01 06:55:14;;;;;;;2.03;1.10;;;18.40;99.90;;;;;;7280022;19;20206;-78
2023/07/01 06:57:44;;;;;;;1.70;1.10;;;18.30;99.90;;;;;;7281445;19;20266;-79
2023/07/01 07:00:12;;;;;;;2.80;1.10;;;18.30;99.90;;;;;;7279738;19;20185;-78
2023/07/01 07:02:38;;;;;;;4.47;1.63;;;18.40;99.90;;;;;;7280174;19;20224;-77
2023/07/01 07:05:05;;;;;;;2.37;1.30;;;18.40;99.90;;;;;;7279886;19;20200;-77
2023/07/01 07:07:31;;;;;;;5.40;1.60;;;18.30;99.90;;;;;;7279214;19;20189;-77
2023/07/01 07:09:57;;;;;;;2.90;1.70;;;18.20;99.90;;;;;;7280415;19;20202;-78
2023/07/01 07:12:23;;;;;;;3.47;1.90;;;18.20;99.90;;;;;;7302779;19;20185;-78
2023/07/01 07:14:48;;;;;;;2.97;1.80;;;18.30;99.90;;;;;;7281032;19;20189;-78
2023/07/01 07:17:14;;;;;;;4.37;2.10;;;18.30;99.90;;;;;;7279554;19;20206;-76
2023/07/01 07:19:40;;;;;;;2.47;2.00;;;18.30;99.90;;;;;;7283939;19;20228;-76
2023/07/01 07:22:05;;;;;;;3.17;2.17;;;18.40;99.90;;;;;;7286258;19;20196;-77
2023/07/01 07:24:31;;;;;;;2.90;2.00;;;18.50;99.90;;;;;;7286110;19;20197;-77
2023/07/01 07:27:00;;;;;;;2.50;1.87;;;18.60;99.90;;;;;;7285517;19;20554;-77
2023/07/01 07:29:27;;;;;;;3.40;1.90;;;18.60;99.90;;;;;;7291441;19;20204;-76
2023/07/01 07:31:55;;;;;;;2.80;1.73;;;18.70;99.90;;;;;;7307643;19;20177;-77
2023/07/01 07:34:21;;;;;;;2.70;1.87;;;18.60;99.90;;;;;;7286280;19;20979;-77
2023/07/01 07:36:46;;;;;;;2.47;1.90;;;18.70;99.90;;;;;;7285166;19;20646;-77
2023/07/01 07:39:13;;;;;;;4.03;1.73;;;18.70;99.90;;;;;;7285848;19;20180;-77
2023/07/01 07:41:42;;;;;;;2.13;1.67;;;18.80;99.90;;;;;;7286377;19;20193;-77
2023/07/01 07:44:08;;;;;;;2.30;1.70;;;18.90;99.90;;;;;;7287048;19;20264;-77
2023/07/01 07:46:35;;;;;;;2.83;1.80;;;19.00;99.90;;;;;;7285549;19;20309;-77
2023/07/01 07:49:01;;;;;;;2.70;2.20;;;19.00;99.90;;;;;;7286747;19;20207;-77
2023/07/01 07:51:27;;;;;;;4.97;2.20;;;19.10;99.90;;;;;;7285929;19;20191;-77
2023/07/01 07:53:53;;;;;;;3.33;2.00;;;19.20;99.90;;;;;;7308283;19;20253;-77
2023/07/01 07:56:19;;;;;;;3.23;2.03;;;19.40;99.90;;;;;;7283897;19;20571;-78
2023/07/01 07:58:45;;;;;;;4.60;2.00;;;19.40;99.90;;;;;;7283623;19;20297;-77
2023/07/01 08:01:11;;;;;;;3.27;2.10;;;19.50;99.90;;;;;;7284141;19;20263;-78
2023/07/01 08:03:38;;;;;;;4.00;2.20;;;19.60;99.90;;;;;;7283536;19;20214;-77
2023/07/01 08:06:04;;;;;;;3.37;2.10;;;19.60;99.90;;;;;;7283896;19;20549;-77
2023/07/01 08:08:30;;;;;;;6.43;2.73;;;19.70;99.90;;;;;;7285418;19;20201;-78
2023/07/01 08:10:58;;;;;;;4.40;3.27;;;19.80;99.90;;;;;;7288089;19;20186;-77
2023/07/01 08:13:24;;;;;;;5.30;3.67;;;19.80;99.90;;;;;;7308790;19;20638;-77
2023/07/01 08:15:50;;;;;;;6.83;4.17;;;19.90;99.90;;;;;;7284669;19;20215;-77
2023/07/01 08:18:16;;;;;;;6.03;3.63;;;19.80;99.90;;;;;;7283261;19;20172;-77
2023/07/01 08:20:44;;;;;;;6.53;3.90;;;19.90;99.90;;;;;;7283055;19;20260;-77
2023/07/01 08:23:09;;;;;;;6.00;3.70;;;20.10;99.90;;;;;;7283876;19;20196;-77
2023/07/01 08:25:36;;;;;;;7.20;3.20;;;20.30;99.90;;;;;;7283110;19;20561;-76
2023/07/01 08:28:01;;;;;;;5.57;3.10;;;20.40;99.90;;;;;;7280823;19;20534;-76
2023/07/01 08:30:27;;;;;;;4.20;2.60;;;20.50;99.90;;;;;;7281274;19;20196;-76
2023/07/01 08:32:53;;;;;;;4.87;3.07;;;20.40;99.90;;;;;;7303246;19;20203;-75
2023/07/01 08:35:19;;;;;;;4.43;2.60;;;20.60;99.90;;;;;;7279862;19;20293;-75
2023/07/01 08:37:44;;;;;;;3.33;2.30;;;20.80;99.90;;;;;;7282900;19;20209;-75
2023/07/01 08:40:10;;;;;;;2.77;1.97;;;21.00;99.90;;;;;;7281390;19;20184;-75
2023/07/01 08:42:44;;;;;;;1.90;1.60;;;21.30;99.90;;;;;;7280854;19;20647;-76
2023/07/01 08:45:10;;;;;;;1.83;1.20;;;21.40;99.90;;;;;;7281266;19;20217;-76
2023/07/01 08:47:37;;;;;;;3.20;1.20;;;21.70;99.90;;;;;;7281249;19;20204;-75
2023/07/01 08:50:07;;;;;;;3.10;1.40;;;21.70;99.90;;;;;;7279625;19;20187;-76
2023/07/01 08:52:41;;;;;;;2.50;1.50;;;21.90;99.90;;;;;;7281466;19;20202;-77
2023/07/01 08:55:11;;;;;;;2.00;1.10;;;22.00;99.90;;;;;;7280559;19;20618;-77
2023/07/01 08:57:39;;;;;;;1.40;1.20;;;21.90;99.90;;;;;;7280150;19;20195;-77
2023/07/01 09:00:14;;;;;;;2.70;1.20;;;22.10;99.90;;;;;;7280246;19;20189;-76
2023/07/01 09:02:41;;;;;;;3.03;1.10;;;22.60;99.90;;;;;;7280481;19;21040;-77
2023/07/01 09:05:07;;;;;;;1.67;1.00;;;23.30;99.90;;;;;;7280731;19;20200;-77
2023/07/01 09:07:33;;;;;;;1.90;1.00;;;24.10;99.90;;;;;;7279958;19;20181;-78
2023/07/01 09:10:03;;;;;;;0.93;0.80;;;24.80;99.90;;;;;;7280479;19;20566;-76
2023/07/01 09:12:32;;;;;;;2.03;0.77;;;25.20;99.90;;;;;;7279658;19;20193;-76
2023/07/01 09:15:06;;;;;;;3.53;1.20;;;25.10;99.90;;;;;;7279638;19;20195;-77
2023/07/01 09:17:37;;;;;;;1.60;0.80;;;25.10;99.90;;;;;;7281016;19;20225;-77
2023/07/01 09:20:08;;;;;;;2.88;1.00;;;24.80;99.90;;;;;;7280817;19;20215;-78
2023/07/01 09:22:36;;;;;;;1.73;1.17;;;24.40;99.90;;;;;;7279945;19;20193;-77
2023/07/01 09:25:02;;;;;;;3.10;1.13;;;24.00;99.90;;;;;;7278741;19;20201;-77
2023/07/01 09:27:42;;;;;;;2.60;0.83;;;23.70;99.90;;;;;;7278487;19;20719;-76
2023/07/01 09:30:20;;;;;;;2.90;0.90;;;23.20;99.90;;;;;;7280674;19;20230;-74
2023/07/01 09:32:47;;;;;;;1.97;0.77;;;22.90;99.90;;;;;;7278839;19;20193;-76
2023/07/01 09:35:13;;;;;;;2.80;1.00;;;22.90;99.90;;;;;;7281810;19;20666;-77
2023/07/01 09:37:39;;;;;;;3.03;0.80;;;22.80;99.90;;;;;;7281621;19;20184;-77
2023/07/01 09:40:26;;;;;;;1.10;0.87;;;22.90;99.90;;;;;;7279532;19;20196;-77
2023/07/01 09:42:54;;;;;;;3.57;0.80;;;23.10;99.90;;;;;;7280366;19;20193;-77
2023/07/01 09:45:21;;;;;;;3.67;0.83;;;23.50;99.90;;;;;;7281245;19;20196;-77
2023/07/01 09:47:52;;;;;;;2.70;1.00;;;24.10;99.90;;;;;;7280584;19;20190;-77
2023/07/01 09:50:30;;;;;;;3.90;0.80;;;24.60;99.90;;;;;;7281037;19;20306;-77
2023/07/01 09:52:57;;;;;;;1.67;0.80;;;25.10;99.90;;;;;;7267764;19;20193;-78
2023/07/01 09:55:23;;;;;;;3.92;0.90;;;25.60;99.90;;;;;;7301758;19;20556;-77
2023/07/01 09:57:49;;;;;;;2.70;0.80;;;26.50;99.90;;;;;;7280866;19;20226;-77
2023/07/01 10:00:16;;;;;;;3.67;0.80;;;26.70;99.90;;;;;;7280073;19;20241;-76
2023/07/01 10:02:46;;;;;;;3.65;0.80;;;28.60;99.90;;;;;;7278617;19;20256;-77
2023/07/01 10:05:15;;;;;;;3.95;1.00;;;30.60;99.90;;;;;;7278136;19;20264;-76
2023/07/01 10:07:42;;;;;;;2.50;0.90;;;31.60;99.90;;;;;;7278307;19;20192;-78
2023/07/01 10:10:12;;;;;;;3.33;1.08;;;31.50;99.90;;;;;;7277247;19;20220;-76
2023/07/01 10:12:40;;;;;;;3.42;1.20;;;31.40;99.90;;;;;;7279677;19;20220;-76
2023/07/01 10:15:08;;;;;;;4.60;1.17;;;31.30;99.90;;;;;;7279167;19;20653;-76
2023/07/01 10:17:48;;;;;;;3.22;1.30;;;29.80;99.90;;;;;;7278851;19;20189;-77
2023/07/01 10:20:31;;;;;;;5.15;1.40;;;28.80;99.90;;;;;;7279592;19;20220;-76
2023/07/01 10:23:02;;;;;;;4.60;1.38;;;28.80;99.90;;;;;;7256789;19;20320;-77
2023/07/01 10:25:35;;;;;;;6.28;1.60;;;28.80;99.90;;;;;;7278017;19;20200;-77
2023/07/01 10:28:02;;;;;;;5.53;1.40;;;27.80;99.90;;;;;;7280449;19;20193;-77
2023/07/01 10:30:46;;;;;;;5.68;1.63;;;27.40;99.90;;;;;;7278989;19;20185;-77
2023/07/01 10:33:27;;;;;;;5.95;1.40;;;26.70;99.90;;;;;;7278433;19;20225;-76
2023/07/01 10:36:07;;;;;;;6.28;1.45;;;26.20;99.90;;;;;;7280496;19;20880;-77
2023/07/01 10:38:34;;;;;;;5.55;1.52;;;26.10;99.90;;;;;;7176127;19;2005172;-76
2023/07/01 10:41:00;;;;;;;6.90;1.63;;;26.20;99.90;;;;;;7280054;19;20185;-77
2023/07/01 10:43:31;;;;;;;4.70;1.40;;;26.30;99.90;;;;;;7289435;19;21126;-76
2023/07/01 10:46:05;;;;;;;7.07;1.50;;;26.50;99.90;;;;;;7284575;19;20204;-76
2023/07/01 10:48:31;;;;;;;6.72;1.45;;;26.60;99.90;;;;;;7278432;19;20196;-76
2023/07/01 10:51:09;;;;;;;5.95;1.60;;;26.20;99.90;;;;;;7282934;19;20293;-77
2023/07/01 10:54:04;;;;;;;8.45;1.50;;;25.90;99.90;;;;;;7281970;19;20268;-78
2023/07/01 10:56:35;;;;;;;6.45;1.70;;;25.10;99.90;;;;;;7264522;19;20226;-76
2023/07/01 10:59:23;;;;;;;5.93;1.45;;;24.80;99.90;;;;;;7286171;19;20188;-77
2023/07/01 11:01:56;;;;;;;6.80;1.80;;;24.00;99.90;;;;;;7286281;19;20213;-77
2023/07/01 11:04:24;;;;;;;7.87;2.13;;;23.30;99.90;;;;;;7285534;19;20189;-77
2023/07/01 11:06:54;;;;;;;8.70;2.40;;;22.80;99.90;;;;;;7285787;19;20185;-78
2023/07/01 11:09:32;;;;;;;10.13;2.07;;;22.80;99.90;;;;;;7285040;19;20227;-78
2023/07/01 11:12:00;;;;;;;7.80;2.30;;;23.40;99.90;;;;;;7263292;19;20195;-78
2023/07/01 11:14:38;;;;;;;6.30;1.60;;;23.90;99.90;;;;;;7296068;19;20181;-78
2023/07/01 11:17:16;;;;;;;4.83;1.37;;;24.80;99.90;;;;;;7287289;19;20260;-77
2023/07/01 11:19:44;;;;;;;4.50;1.27;;;26.10;99.90;;;;;;7285748;19;20546;-78
2023/07/01 11:22:13;;;;;;;4.53;1.02;;;26.90;99.90;;;;;;7284308;19;20189;-78
2023/07/01 11:24:40;;;;;;;3.25;1.33;;;27.20;99.90;;;;;;7283907;19;20542;-78
2023/07/01 11:27:08;;;;;;;5.65;1.40;;;27.10;99.90;;;;;;7286276;19;20185;-77
2023/07/01 11:29:41;;;;;;;6.13;1.00;;;26.60;99.90;;;;;;7285466;19;20288;-78
2023/07/01 11:32:14;;;;;;;4.57;0.77;;;26.70;99.90;;;;;;7284333;19;20276;-78
2023/07/01 11:34:49;;;;;;;6.25;0.90;;;26.70;99.90;;;;;;7284873;19;20192;-78
2023/07/01 11:37:26;;;;;;;2.45;0.90;;;26.80;99.90;;;;;;7286000;19;20569;-78
2023/07/01 11:39:52;;;;;;;4.78;1.17;;;26.40;99.90;;;;;;7286370;19;20290;-78
2023/07/01 11:42:18;;;;;;;2.80;1.00;;;25.70;99.90;;;;;;7284620;19;20206;-77
2023/07/01 11:44:44;;;;;;;4.20;1.40;;;25.60;99.90;;;;;;7285342;19;20192;-77
2023/07/01 11:47:14;;;;;;;4.35;1.20;;;25.40;99.90;;;;;;7284509;19;20193;-77
2023/07/01 11:49:40;;;;;;;2.35;0.93;;;25.20;99.90;;;;;;7284875;19;20644;-77
2023/07/01 11:52:06;;;;;;;2.13;0.90;;;25.60;99.90;;;;;;7285649;19;20197;-76
2023/07/01 11:54:44;;;;;;;2.55;0.52;;;26.30;99.90;;;;;;7281816;19;20184;-77
2023/07/01 11:57:18;;;;;;;2.97;0.80;;;27.20;99.90;;;;;;7285248;19;20951;-76
2023/07/01 11:59:58;;;;;;;2.83;0.60;;;27.70;99.90;;;;;;7286964;19;20682;-76
2023/07/01 12:02:28;;;;;;;3.00;0.50;;;27.50;99.90;;;;;;7284762;19;20216;-77
2023/07/01 12:04:54;;;;;;;1.80;0.73;;;28.10;99.90;;;;;;7282273;19;20192;-77
2023/07/01 12:07:20;;;;;;;4.15;0.90;;;28.90;99.90;;;;;;7282210;19;20747;-77
2023/07/01 12:09:46;;;;;;;4.10;0.90;;;29.10;99.90;;;;;;7286331;19;20177;-78
2023/07/01 12:12:16;;;;;;;3.58;1.20;;;28.90;99.90;;;;;;7286043;19;20185;-77
2023/07/01 12:14:43;;;;;;;2.28;0.90;;;28.80;99.90;;;;;;7284191;19;20201;-77
2023/07/01 12:17:25;;;;;;;1.83;0.52;;;29.10;99.90;;;;;;7283888;19;20177;-77
2023/07/01 12:19:52;;;;;;;1.52;0.80;;;28.90;99.90;;;;;;7284228;19;20185;-77
2023/07/01 12:22:17;;;;;;;2.72;0.60;;;28.50;99.90;;;;;;7285706;19;21143;-76
2023/07/01 12:24:43;;;;;;;0.93;0.50;;;27.70;99.90;;;;;;7284594;19;20246;-77
2023/07/01 12:27:08;;;;;;;1.77;0.60;;;26.90;99.90;;;;;;7283949;19;20620;-77
2023/07/01 12:29:34;;;;;;;1.77;0.75;;;26.40;99.90;;;;;;7284052;19;20188;-77
2023/07/01 12:32:00;;;;;;;2.05;0.70;;;26.60;99.90;;;;;;7283710;19;20473;-77
2023/07/01 12:34:26;;;;;;;3.35;0.80;;;26.20;99.90;;;;;;7298451;19;20197;-78
2023/07/01 12:36:52;;;;;;;1.60;0.70;;;25.90;99.90;;;;;;7298798;19;20184;-78
2023/07/01 12:39:18;;;;;;;3.70;0.50;;;25.60;99.90;;;;;;7284413;19;20899;-79
2023/07/01 12:41:47;;;;;;;2.65;0.60;;;25.70;99.90;;;;;;7283869;19;20184;-78
2023/07/01 12:44:14;;;;;;;4.40;0.60;;;25.70;99.90;;;;;;7283452;19;20188;-78
2023/07/01 12:46:43;;;;;;;2.30;0.50;;;25.50;99.90;;;;;;7282873;19;20184;-78
2023/07/01 12:49:12;;;;;;;4.63;0.60;;;25.30;99.90;;;;;;7283585;19;20193;-78